Time;durP1;ratioP1;P1;durP2;ratioP2;P2;SDS_P1;SDS_P2;PMS_P1;PMS_P2;Temp;Humidity;BMP_temperature;BMP_pressure;BME280_temperature;BME280_humidity;BME280_pressure;Samples;Min_cycle;Max_cycle;Signal;HPM_P1;HPM_P2
2022/01/11 00:01:41;;;;;;;;;;;0.70;99.90;;;;;;5035213;28;19917;-87
2022/01/11 00:04:07;;;;;;;;;;;0.70;99.90;;;;;;5035662;28;19915;-87
2022/01/11 00:06:43;;;;;;;;;;;0.70;99.90;;;;;;5035142;28;19909;-87
2022/01/11 00:09:19;;;;;;;;;;;0.90;99.90;;;;;;5035715;28;19917;-88
2022/01/11 00:11:48;;;;;;;;;;;0.90;99.90;;;;;;5052704;28;19920;-88
2022/01/11 00:14:14;;;;;;;;;;;0.90;99.90;;;;;;5035041;28;19971;-88
2022/01/11 00:16:40;;;;;;;;;;;0.80;99.90;;;;;;5019358;28;19917;-86
2022/01/11 00:19:06;;;;;;;;;;;0.80;99.90;;;;;;5035488;28;19909;-87
2022/01/11 00:21:33;;;;;;;;;;;0.70;99.90;;;;;;5019481;28;19914;-86
2022/01/11 00:26:43;;;;;;;;;;;0.70;99.90;;;;;;5038507;28;19936;-86
2022/01/11 00:29:08;;;;;;;;;;;0.90;99.90;;;;;;5037338;28;19921;-88
2022/01/11 00:31:34;;;;;;;;;;;0.90;99.90;;;;;;5034736;28;20276;-88
2022/01/11 00:34:01;;;;;;;;;;;1.00;99.90;;;;;;5048886;28;19935;-89
2022/01/11 00:36:40;;;;;;;;;;;0.90;99.90;;;;;;5032382;28;19920;-86
2022/01/11 00:39:05;;;;;;;;;;;0.90;99.90;;;;;;5049161;28;19917;-88
2022/01/11 00:41:31;;;;;;;;;;;0.90;99.90;;;;;;5015669;28;19921;-88
2022/01/11 00:43:57;;;;;;;;;;;0.90;99.90;;;;;;5031728;28;19909;-87
2022/01/11 00:46:22;;;;;;;;;;;0.70;99.90;;;;;;5031804;28;19920;-86
2022/01/11 00:48:48;;;;;;;;;;;0.70;99.90;;;;;;5032609;28;19909;-87
2022/01/11 00:51:14;;;;;;;;;;;0.70;99.90;;;;;;5032312;28;19909;-88
2022/01/11 00:53:40;;;;;;;;;;;0.60;99.90;;;;;;5016635;28;19952;-89
2022/01/11 00:56:06;;;;;;;;;;;0.70;99.90;;;;;;5030746;28;20360;-86
2022/01/11 00:58:32;;;;;;;;;;;0.80;99.90;;;;;;5048569;28;19928;-87
2022/01/11 01:00:58;;;;;;;;;;;0.90;99.90;;;;;;5032303;28;20311;-86
2022/01/11 01:03:29;;;;;;;;;;;0.90;99.90;;;;;;5032205;28;19936;-87
2022/01/11 01:05:55;;;;;;;;;;;0.70;99.90;;;;;;5031012;28;19952;-87
2022/01/11 01:08:20;;;;;;;;;;;0.70;99.90;;;;;;5030218;28;19956;-86
2022/01/11 01:10:46;;;;;;;;;;;0.70;99.90;;;;;;5031640;28;19913;-85
2022/01/11 01:13:14;;;;;;;;;;;0.70;99.90;;;;;;5031782;28;19920;-86
2022/01/11 01:15:40;;;;;;;;;;;0.90;99.90;;;;;;5031285;28;19909;-86
2022/01/11 01:18:06;;;;;;;;;;;0.90;99.90;;;;;;5029762;28;20020;-86
2022/01/11 01:20:32;;;;;;;;;;;1.00;99.90;;;;;;5014995;28;19913;-87
2022/01/11 01:22:57;;;;;;;;;;;1.00;99.90;;;;;;5032271;28;20003;-89
2022/01/11 01:25:23;;;;;;;;;;;1.00;99.90;;;;;;5047580;28;20039;-87
2022/01/11 01:27:50;;;;;;;;;;;0.70;99.90;;;;;;5030977;28;19914;-86
2022/01/11 01:30:17;;;;;;;;;;;0.80;99.90;;;;;;5028957;28;19928;-87
2022/01/11 01:32:43;;;;;;;;;;;0.70;99.90;;;;;;5031311;28;19913;-85
2022/01/11 01:35:09;;;;;;;;;;;0.70;99.90;;;;;;5024534;28;19917;-87
2022/01/11 01:37:35;;;;;;;;;;;0.80;99.90;;;;;;5012917;28;19916;-86
2022/01/11 01:40:00;;;;;;;;;;;0.90;99.90;;;;;;5026502;28;19914;-85
2022/01/11 01:42:28;;;;;;;;;;;1.00;99.90;;;;;;5030995;28;20011;-85
2022/01/11 01:44:59;;;;;;;;;;;1.00;99.90;;;;;;5019222;28;19921;-86
2022/01/11 01:47:25;;;;;;;;;;;0.90;99.90;;;;;;5024323;28;20376;-86
2022/01/11 01:49:51;;;;;;;;;;;0.80;99.90;;;;;;5031130;28;20012;-88
2022/01/11 01:52:16;;;;;;;;;;;0.80;99.90;;;;;;5030567;28;20221;-88
2022/01/11 01:54:42;;;;;;;;;;;0.80;99.90;;;;;;5030940;28;20294;-87
2022/01/11 01:57:08;;;;;;;;;;;0.90;99.90;;;;;;5030622;28;19921;-87
2022/01/11 01:59:34;;;;;;;;;;;1.00;99.90;;;;;;5014445;28;19917;-87
2022/01/11 02:02:00;;;;;;;;;;;0.90;99.90;;;;;;5045693;28;20031;-86
2022/01/11 02:04:25;;;;;;;;;;;1.00;99.90;;;;;;5030747;28;19963;-86
2022/01/11 02:06:51;;;;;;;;;;;1.00;99.90;;;;;;5030589;28;19913;-85
2022/01/11 02:09:17;;;;;;;;;;;1.00;99.90;;;;;;5022386;28;19917;-86
2022/01/11 02:11:43;;;;;;;;;;;1.10;99.90;;;;;;5030939;28;19924;-86
2022/01/11 02:14:09;;;;;;;;;;;1.00;99.90;;;;;;5030017;28;19918;-86
2022/01/11 02:16:35;;;;;;;;;;;0.90;99.90;;;;;;5013082;28;19924;-86
2022/01/11 02:19:03;;;;;;;;;;;0.90;99.90;;;;;;5030497;28;19954;-84
2022/01/11 02:21:31;;;;;;;;;;;0.80;99.90;;;;;;5030304;28;19913;-86
2022/01/11 02:24:00;;;;;;;;;;;1.00;99.90;;;;;;5029798;28;19925;-87
2022/01/11 02:26:26;;;;;;;;;;;1.10;99.90;;;;;;5029121;28;19917;-86
2022/01/11 02:28:52;;;;;;;;;;;1.20;99.90;;;;;;5023218;28;19979;-87
2022/01/11 02:31:18;;;;;;;;;;;1.10;99.90;;;;;;5028183;28;19917;-88
2022/01/11 02:33:46;;;;;;;;;;;1.20;99.90;;;;;;5013341;28;19917;-86
2022/01/11 02:36:13;;;;;;;;;;;1.10;99.90;;;;;;5029452;28;20004;-87
2022/01/11 02:38:39;;;;;;;;;;;1.00;99.90;;;;;;5029832;28;20345;-86
2022/01/11 02:41:04;;;;;;;;;;;1.00;99.90;;;;;;5030122;28;19995;-87
2022/01/11 02:43:32;;;;;;;;;;;0.90;99.90;;;;;;5030606;28;19924;-87
2022/01/11 02:46:00;;;;;;;;;;;1.00;99.90;;;;;;5025456;28;19913;-88
2022/01/11 02:48:26;;;;;;;;;;;1.10;99.90;;;;;;5025783;28;19913;-88
2022/01/11 02:50:51;;;;;;;;;;;1.10;99.90;;;;;;5031483;28;19917;-88
2022/01/11 02:53:18;;;;;;;;;;;1.20;99.90;;;;;;5029486;28;19920;-86
2022/01/11 02:55:43;;;;;;;;;;;1.10;99.90;;;;;;5029253;28;19917;-87
2022/01/11 02:58:13;;;;;;;;;;;1.00;99.90;;;;;;5020992;28;19964;-87
2022/01/11 03:00:39;;;;;;;;;;;0.90;99.90;;;;;;5044269;28;19949;-85
2022/01/11 03:03:10;;;;;;;;;;;0.90;99.90;;;;;;5029376;28;20007;-86
2022/01/11 03:05:36;;;;;;;;;;;0.90;99.90;;;;;;5029383;28;19953;-85
2022/01/11 03:08:05;;;;;;;;;;;0.90;99.90;;;;;;5030647;28;20432;-86
2022/01/11 03:10:33;;;;;;;;;;;0.90;99.90;;;;;;5028500;28;19921;-86
2022/01/11 03:13:00;;;;;;;;;;;1.00;99.90;;;;;;5016936;28;20036;-87
2022/01/11 03:15:26;;;;;;;;;;;1.10;99.90;;;;;;5021341;28;19948;-87
2022/01/11 03:17:52;;;;;;;;;;;1.10;99.90;;;;;;5014298;28;20262;-87
2022/01/11 03:20:17;;;;;;;;;;;1.00;99.90;;;;;;5027889;28;20352;-87
2022/01/11 03:22:43;;;;;;;;;;;1.00;99.90;;;;;;5029047;28;20372;-86
2022/01/11 03:25:09;;;;;;;;;;;1.00;99.90;;;;;;5031656;28;19920;-86
2022/01/11 03:27:35;;;;;;;;;;;1.00;99.90;;;;;;5029838;28;19920;-87
2022/01/11 03:30:00;;;;;;;;;;;1.00;99.90;;;;;;5030760;28;19924;-86
2022/01/11 03:32:29;;;;;;;;;;;1.00;99.90;;;;;;5030371;28;20353;-85
2022/01/11 03:34:55;;;;;;;;;;;1.10;99.90;;;;;;5031361;28;19913;-86
2022/01/11 03:37:20;;;;;;;;;;;1.10;99.90;;;;;;5031368;28;19921;-85
2022/01/11 03:39:47;;;;;;;;;;;1.20;99.90;;;;;;5029350;28;19913;-86
2022/01/11 03:42:12;;;;;;;;;;;1.10;99.90;;;;;;5029881;28;19913;-86
2022/01/11 03:44:38;;;;;;;;;;;1.10;99.90;;;;;;5027900;28;19928;-86
2022/01/11 03:47:04;;;;;;;;;;;1.10;99.90;;;;;;5029107;28;20032;-87
2022/01/11 03:49:38;;;;;;;;;;;1.00;99.90;;;;;;5029198;28;19917;-85
2022/01/11 03:52:07;;;;;;;;;;;1.00;99.90;;;;;;5028710;28;19913;-87
2022/01/11 03:54:50;;;;;;;;;;;0.90;99.90;;;;;;5028745;28;19920;-87
2022/01/11 03:57:16;;;;;;;;;;;0.90;99.90;;;;;;5030108;28;19920;-85
2022/01/11 03:59:41;;;;;;;;;;;1.00;99.90;;;;;;5032246;28;19913;-85
2022/01/11 04:02:07;;;;;;;;;;;1.00;99.90;;;;;;5048767;28;19917;-87
2022/01/11 04:04:35;;;;;;;;;;;1.00;99.90;;;;;;5031073;28;19913;-87
2022/01/11 04:07:00;;;;;;;;;;;1.10;99.90;;;;;;5024339;28;19971;-86
2022/01/11 04:09:27;;;;;;;;;;;1.10;99.90;;;;;;5024246;28;19917;-88
2022/01/11 04:11:52;;;;;;;;;;;1.00;99.90;;;;;;5017357;28;19914;-84
2022/01/11 04:14:22;;;;;;;;;;;1.00;99.90;;;;;;5030971;28;19913;-85
2022/01/11 04:16:48;;;;;;;;;;;1.00;99.90;;;;;;5033633;28;20613;-86
2022/01/11 04:19:13;;;;;;;;;;;1.00;99.90;;;;;;5032526;28;19913;-87
2022/01/11 04:21:39;;;;;;;;;;;1.10;99.90;;;;;;5032395;28;19916;-86
2022/01/11 04:24:07;;;;;;;;;;;1.20;99.90;;;;;;5032766;28;19960;-87
2022/01/11 04:26:33;;;;;;;;;;;1.20;99.90;;;;;;5031445;28;19913;-86
2022/01/11 04:28:58;;;;;;;;;;;1.10;99.90;;;;;;5032185;28;20376;-85
2022/01/11 04:31:24;;;;;;;;;;;1.10;99.90;;;;;;5019742;28;19924;-88
2022/01/11 04:33:55;;;;;;;;;;;1.00;99.90;;;;;;5026689;28;19913;-87
2022/01/11 04:36:21;;;;;;;;;;;1.00;99.90;;;;;;5030565;28;19921;-87
2022/01/11 04:39:10;;;;;;;;;;;1.00;99.90;;;;;;5015494;28;19917;-86
2022/01/11 04:41:36;;;;;;;;;;;1.20;99.90;;;;;;5033295;28;20341;-86
2022/01/11 04:44:02;;;;;;;;;;;1.10;99.90;;;;;;5030162;28;19913;-86
2022/01/11 04:46:30;;;;;;;;;;;1.20;99.90;;;;;;5031712;28;19920;-87
2022/01/11 04:48:56;;;;;;;;;;;1.30;99.90;;;;;;5031534;28;19913;-86
2022/01/11 04:51:24;;;;;;;;;;;1.30;99.90;;;;;;5032865;28;20007;-87
2022/01/11 04:53:52;;;;;;;;;;;1.20;99.90;;;;;;5032681;28;19913;-87
2022/01/11 04:56:18;;;;;;;;;;;1.20;99.90;;;;;;5032452;28;20308;-87
2022/01/11 04:58:44;;;;;;;;;;;1.10;99.90;;;;;;5031546;28;19913;-87
2022/01/11 05:01:09;;;;;;;;;;;1.10;99.90;;;;;;5031220;28;20008;-87
2022/01/11 05:03:35;;;;;;;;;;;1.00;99.90;;;;;;5033628;28;19920;-86
2022/01/11 05:06:01;;;;;;;;;;;1.10;99.90;;;;;;5035688;28;20280;-87
2022/01/11 05:08:29;;;;;;;;;;;1.10;99.90;;;;;;5033020;28;20277;-88
2022/01/11 05:10:55;;;;;;;;;;;1.10;99.90;;;;;;5031672;28;20408;-86
2022/01/11 05:13:21;;;;;;;;;;;1.20;99.90;;;;;;5022735;28;19980;-87
2022/01/11 05:15:47;;;;;;;;;;;1.10;99.90;;;;;;5014862;28;19917;-87
2022/01/11 05:18:12;;;;;;;;;;;1.10;99.90;;;;;;5022347;28;19913;-86
2022/01/11 05:20:38;;;;;;;;;;;1.10;99.90;;;;;;5030820;28;20096;-86
2022/01/11 05:23:07;;;;;;;;;;;1.00;99.90;;;;;;5027347;28;20003;-87
2022/01/11 05:25:33;;;;;;;;;;;1.00;99.90;;;;;;5031415;28;19920;-86
2022/01/11 05:27:59;;;;;;;;;;;1.10;99.90;;;;;;5032263;28;19913;-87
2022/01/11 05:30:25;;;;;;;;;;;1.20;99.90;;;;;;5027432;28;19928;-86
2022/01/11 05:32:51;;;;;;;;;;;1.30;99.90;;;;;;5030803;28;19913;-86
2022/01/11 05:35:18;;;;;;;;;;;1.20;99.90;;;;;;5032036;28;19928;-87
2022/01/11 05:37:43;;;;;;;;;;;1.20;99.90;;;;;;5030659;28;20356;-87
2022/01/11 05:40:09;;;;;;;;;;;1.10;99.90;;;;;;5031006;28;19920;-86
2022/01/11 05:42:35;;;;;;;;;;;1.00;99.90;;;;;;5025938;28;19920;-87
2022/01/11 05:45:01;;;;;;;;;;;1.00;99.90;;;;;;5025096;28;19917;-87
2022/01/11 05:47:27;;;;;;;;;;;0.90;99.90;;;;;;5021385;28;20360;-87
2022/01/11 05:49:52;;;;;;;;;;;0.90;99.90;;;;;;5036941;28;19928;-86
2022/01/11 05:52:18;;;;;;;;;;;0.90;99.90;;;;;;5028182;28;19975;-86
2022/01/11 05:54:49;;;;;;;;;;;1.10;99.90;;;;;;5029036;28;20201;-88
2022/01/11 05:57:15;;;;;;;;;;;1.20;99.90;;;;;;5030375;28;19914;-86
2022/01/11 05:59:46;;;;;;;;;;;1.10;99.90;;;;;;5030619;28;19925;-85
2022/01/11 06:02:11;;;;;;;;;;;1.20;99.90;;;;;;5029237;28;20380;-87
2022/01/11 06:04:37;;;;;;;;;;;1.20;99.90;;;;;;5030904;28;19913;-88
2022/01/11 06:07:02;;;;;;;;;;;1.20;99.90;;;;;;5038445;28;19913;-87
2022/01/11 06:09:28;;;;;;;;;;;1.20;99.90;;;;;;5046262;28;19960;-87
2022/01/11 06:11:54;;;;;;;;;;;1.20;99.90;;;;;;5030270;28;20415;-85
2022/01/11 06:14:20;;;;;;;;;;;1.00;99.90;;;;;;5045680;28;19913;-87
2022/01/11 06:16:51;;;;;;;;;;;1.00;99.90;;;;;;5009018;28;19921;-86
2022/01/11 06:19:17;;;;;;;;;;;0.90;99.90;;;;;;5027468;28;19995;-89
2022/01/11 06:21:42;;;;;;;;;;;0.90;99.90;;;;;;5028816;28;20011;-86
2022/01/11 06:24:08;;;;;;;;;;;0.90;99.90;;;;;;5028642;28;20387;-87
2022/01/11 06:26:37;;;;;;;;;;;0.90;99.90;;;;;;5027370;28;19913;-87
2022/01/11 06:29:05;;;;;;;;;;;0.90;99.90;;;;;;5029192;28;19967;-85
2022/01/11 06:31:32;;;;;;;;;;;0.90;99.90;;;;;;5029456;28;19917;-87
2022/01/11 06:33:58;;;;;;;;;;;0.90;99.90;;;;;;5029570;28;19986;-87
2022/01/11 06:36:24;;;;;;;;;;;1.00;99.90;;;;;;5002084;28;19956;-87
2022/01/11 06:38:49;;;;;;;;;;;1.00;99.90;;;;;;5024790;28;19913;-86
2022/01/11 06:41:15;;;;;;;;;;;1.00;99.90;;;;;;5028945;28;19951;-86
2022/01/11 06:43:41;;;;;;;;;;;1.10;99.90;;;;;;5029443;28;19924;-86
2022/01/11 06:46:06;;;;;;;;;;;1.00;99.90;;;;;;5029102;28;20349;-87
2022/01/11 06:48:38;;;;;;;;;;;1.10;99.90;;;;;;5029636;28;20372;-87
2022/01/11 06:51:06;;;;;;;;;;;1.10;99.90;;;;;;5028607;28;19917;-86
2022/01/11 06:53:34;;;;;;;;;;;1.10;99.90;;;;;;5025588;28;19909;-87
2022/01/11 06:56:00;;;;;;;;;;;1.10;99.90;;;;;;5013307;28;20385;-89
2022/01/11 06:58:26;;;;;;;;;;;1.10;99.90;;;;;;5021889;28;19920;-85
2022/01/11 07:00:51;;;;;;;;;;;1.10;99.90;;;;;;5012050;28;19940;-88
2022/01/11 07:03:19;;;;;;;;;;;1.10;99.90;;;;;;5030434;28;19914;-86
2022/01/11 07:05:45;;;;;;;;;;;1.00;99.90;;;;;;5023356;28;19914;-85
2022/01/11 07:08:11;;;;;;;;;;;1.00;99.90;;;;;;5029160;28;19921;-86
2022/01/11 07:10:40;;;;;;;;;;;1.00;99.90;;;;;;5027632;28;19921;-87
2022/01/11 07:13:05;;;;;;;;;;;0.90;99.90;;;;;;5029671;28;19914;-85
2022/01/11 07:15:31;;;;;;;;;;;0.90;99.90;;;;;;5027957;28;20059;-89
2022/01/11 07:17:57;;;;;;;;;;;1.00;99.90;;;;;;5045441;28;20296;-88
2022/01/11 07:20:23;;;;;;;;;;;0.90;99.90;;;;;;5030882;28;19917;-86
2022/01/11 07:22:49;;;;;;;;;;;0.90;99.90;;;;;;5013380;28;19929;-86
2022/01/11 07:25:15;;;;;;;;;;;0.90;99.90;;;;;;5028455;28;19935;-88
2022/01/11 07:27:40;;;;;;;;;;;0.90;99.90;;;;;;5032030;28;20285;-86
2022/01/11 07:30:06;;;;;;;;;;;1.10;99.90;;;;;;5028982;28;19917;-86
2022/01/11 07:32:33;;;;;;;;;;;1.20;99.90;;;;;;5029404;28;20012;-86
2022/01/11 07:34:59;;;;;;;;;;;1.20;99.90;;;;;;5030240;28;19917;-87
2022/01/11 07:37:25;;;;;;;;;;;1.10;99.90;;;;;;5032623;28;19928;-88
2022/01/11 07:39:50;;;;;;;;;;;1.00;99.90;;;;;;5032577;28;19929;-89
2022/01/11 07:42:16;;;;;;;;;;;1.10;99.90;;;;;;5032386;28;19909;-87
2022/01/11 07:44:43;;;;;;;;;;;1.10;99.90;;;;;;5032064;28;19959;-87
2022/01/11 07:47:08;;;;;;;;;;;1.30;99.90;;;;;;5032116;28;19909;-86
2022/01/11 07:49:34;;;;;;;;;;;1.30;99.90;;;;;;5036830;28;19917;-86
2022/01/11 07:52:00;;;;;;;;;;;1.30;99.90;;;;;;5032650;28;19913;-90
2022/01/11 07:54:25;;;;;;;;;;;1.40;99.90;;;;;;5032377;28;19917;-86
2022/01/11 07:56:51;;;;;;;;;;;1.50;99.90;;;;;;5029454;28;19964;-86
2022/01/11 07:59:17;;;;;;;;;;;1.40;99.90;;;;;;5022567;28;19917;-86
2022/01/11 08:01:43;;;;;;;;;;;1.30;99.90;;;;;;5032684;28;19972;-88
2022/01/11 08:04:08;;;;;;;;;;;1.20;99.90;;;;;;5033669;28;19913;-87
2022/01/11 08:06:34;;;;;;;;;;;1.30;99.90;;;;;;5015861;28;19913;-86
2022/01/11 08:09:00;;;;;;;;;;;1.50;99.90;;;;;;5015601;28;20008;-86
2022/01/11 08:11:26;;;;;;;;;;;1.70;99.90;;;;;;5018607;28;20280;-88
2022/01/11 08:13:51;;;;;;;;;;;1.70;99.90;;;;;;5032406;28;20103;-87
2022/01/11 08:16:17;;;;;;;;;;;1.90;99.90;;;;;;5031851;28;19944;-88
2022/01/11 08:18:42;;;;;;;;;;;2.00;99.90;;;;;;5013354;28;20087;-87
2022/01/11 08:21:08;;;;;;;;;;;2.00;99.90;;;;;;5032355;28;19913;-86
2022/01/11 08:23:34;;;;;;;;;;;1.90;99.90;;;;;;5015683;28;19947;-85
2022/01/11 08:25:59;;;;;;;;;;;1.90;99.90;;;;;;5028131;28;19917;-87
2022/01/11 08:28:25;;;;;;;;;;;2.10;99.90;;;;;;5033741;28;19917;-86
2022/01/11 08:30:51;;;;;;;;;;;2.20;99.90;;;;;;5032400;28;20428;-85
2022/01/11 08:33:19;;;;;;;;;;;2.30;99.90;;;;;;5034890;28;19924;-88
2022/01/11 08:35:45;;;;;;;;;;;2.20;99.90;;;;;;5028675;28;19914;-87
2022/01/11 08:38:11;;;;;;;;;;;2.10;99.90;;;;;;5029085;28;19924;-87
2022/01/11 08:40:36;;;;;;;;;;;1.90;99.90;;;;;;5031649;28;19959;-87
2022/01/11 08:43:04;;;;;;;;;;;1.80;99.90;;;;;;5032914;28;19914;-87
2022/01/11 08:45:30;;;;;;;;;;;1.70;99.90;;;;;;5030694;28;19951;-85
2022/01/11 08:47:56;;;;;;;;;;;1.60;99.90;;;;;;5031505;28;20365;-85
2022/01/11 08:50:21;;;;;;;;;;;1.40;99.90;;;;;;5032471;28;19924;-87
2022/01/11 08:52:47;;;;;;;;;;;1.40;99.90;;;;;;5014957;28;19927;-86
2022/01/11 08:55:13;;;;;;;;;;;1.40;99.90;;;;;;5031378;28;19939;-86
2022/01/11 08:57:39;;;;;;;;;;;1.50;99.90;;;;;;5031817;28;19909;-86
2022/01/11 09:00:09;;;;;;;;;;;1.60;99.90;;;;;;5012914;28;19916;-88
2022/01/11 09:02:37;;;;;;;;;;;1.60;99.90;;;;;;5012548;28;19944;-86
2022/01/11 09:05:03;;;;;;;;;;;1.80;99.90;;;;;;5028520;28;19945;-85
2022/01/11 09:07:29;;;;;;;;;;;1.80;99.90;;;;;;5023948;28;19913;-87
2022/01/11 09:09:54;;;;;;;;;;;2.00;99.90;;;;;;5029490;28;19928;-84
2022/01/11 09:12:20;;;;;;;;;;;2.00;99.90;;;;;;5026873;28;19988;-85
2022/01/11 09:14:46;;;;;;;;;;;1.90;99.90;;;;;;5031472;28;20372;-87
2022/01/11 09:17:12;;;;;;;;;;;1.80;99.90;;;;;;5042361;28;19967;-86
2022/01/11 09:19:38;;;;;;;;;;;1.80;99.90;;;;;;5014396;28;19913;-87
2022/01/11 09:22:04;;;;;;;;;;;2.00;99.90;;;;;;5030797;28;19940;-85
2022/01/11 09:24:30;;;;;;;;;;;2.10;99.90;;;;;;5031989;28;19917;-86
2022/01/11 09:26:56;;;;;;;;;;;2.20;99.90;;;;;;5027393;28;19917;-85
2022/01/11 09:29:22;;;;;;;;;;;2.30;99.90;;;;;;5029497;28;19921;-88
2022/01/11 09:31:48;;;;;;;;;;;2.30;99.90;;;;;;5030517;28;20317;-88
2022/01/11 09:34:13;;;;;;;;;;;2.40;99.90;;;;;;5029950;28;19913;-85
2022/01/11 09:36:40;;;;;;;;;;;2.20;99.90;;;;;;5031679;28;19913;-88
2022/01/11 09:39:06;;;;;;;;;;;2.30;99.90;;;;;;5017500;28;19940;-87
2022/01/11 09:41:31;;;;;;;;;;;2.40;99.90;;;;;;5040467;28;20364;-86
2022/01/11 09:43:58;;;;;;;;;;;2.40;99.90;;;;;;5041625;28;19952;-86
2022/01/11 09:46:24;;;;;;;;;;;2.60;99.90;;;;;;5034130;28;19913;-87
2022/01/11 09:48:49;;;;;;;;;;;2.90;99.90;;;;;;5046721;28;20368;-88
2022/01/11 09:51:15;;;;;;;;;;;3.20;99.90;;;;;;5043173;28;19913;-89
2022/01/11 09:53:41;;;;;;;;;;;3.30;99.90;;;;;;5024557;28;19956;-90
2022/01/11 09:56:07;;;;;;;;;;;3.50;99.90;;;;;;5028728;28;19917;-88
2022/01/11 09:58:33;;;;;;;;;;;3.40;99.90;;;;;;5030373;28;19995;-86
2022/01/11 10:00:59;;;;;;;;;;;3.10;99.90;;;;;;5013421;28;20436;-88
2022/01/11 10:03:24;;;;;;;;;;;2.90;99.90;;;;;;5030364;28;19917;-86
2022/01/11 10:05:50;;;;;;;;;;;2.80;99.90;;;;;;5031360;28;19916;-87
2022/01/11 10:08:21;;;;;;;;;;;2.60;99.90;;;;;;5029903;28;20273;-85
2022/01/11 10:10:48;;;;;;;;;;;2.40;99.90;;;;;;5028201;28;19921;-85
2022/01/11 10:13:32;;;;;;;;;;;2.20;99.90;;;;;;5029703;28;20521;-88
2022/01/11 10:16:16;;;;;;;;;;;2.10;99.90;;;;;;5041631;28;19909;-84
2022/01/11 10:18:42;;;;;;;;;;;2.10;99.90;;;;;;5029312;28;19955;-88
2022/01/11 10:21:26;;;;;;;;;;;2.00;99.90;;;;;;5029555;28;20186;-89
2022/01/11 10:23:52;;;;;;;;;;;1.90;99.90;;;;;;5044716;28;19917;-88
2022/01/11 10:26:37;;;;;;;;;;;2.10;99.90;;;;;;5027772;28;19913;-86
2022/01/11 10:29:21;;;;;;;;;;;2.40;99.90;;;;;;5026310;28;19940;-88
2022/01/11 10:31:48;;;;;;;;;;;2.80;99.90;;;;;;5021500;28;20027;-86
2022/01/11 10:34:14;;;;;;;;;;;3.10;99.90;;;;;;5030478;28;20606;-88
2022/01/11 10:36:43;;;;;;;;;;;3.00;99.90;;;;;;5029916;28;19917;-88
2022/01/11 10:39:29;;;;;;;;;;;2.60;99.90;;;;;;5031008;28;19917;-86
2022/01/11 10:41:56;;;;;;;;;;;2.10;99.90;;;;;;5030028;28;19923;-88
2022/01/11 10:45:01;;;;;;;;;;;1.80;99.90;;;;;;5027650;28;19909;-87
2022/01/11 10:47:35;;;;;;;;;;;1.80;99.90;;;;;;5008314;28;19916;-86
2022/01/11 10:50:04;;;;;;;;;;;1.90;99.90;;;;;;5006868;28;19921;-86
2022/01/11 10:52:32;;;;;;;;;;;2.00;99.90;;;;;;5001330;28;19913;-88
2022/01/11 10:54:58;;;;;;;;;;;2.10;99.90;;;;;;5038936;28;19992;-86
2022/01/11 10:57:28;;;;;;;;;;;2.10;99.90;;;;;;5032906;28;20130;-88
2022/01/11 11:00:05;;;;;;;;;;;2.00;99.90;;;;;;5032934;28;19913;-87
2022/01/11 11:02:30;;;;;;;;;;;1.90;99.90;;;;;;5030079;28;20297;-87
2022/01/11 11:04:58;;;;;;;;;;;2.00;99.90;;;;;;5028978;28;19916;-86
2022/01/11 11:07:25;;;;;;;;;;;2.00;99.90;;;;;;5022195;28;19917;-85
2022/01/11 11:09:51;;;;;;;;;;;2.30;99.90;;;;;;5029820;28;19925;-86
2022/01/11 11:12:19;;;;;;;;;;;2.70;99.90;;;;;;5026936;28;19917;-88
2022/01/11 11:14:55;;;;;;;;;;;2.80;99.90;;;;;;5027930;28;19909;-89
2022/01/11 11:17:31;;;;;;;;;;;3.10;99.90;;;;;;5029100;28;20000;-87
2022/01/11 11:19:59;;;;;;;;;;;3.20;99.90;;;;;;5027544;28;19960;-86
2022/01/11 11:22:25;;;;;;;;;;;3.10;99.90;;;;;;5027441;28;20651;-87
2022/01/11 11:24:51;;;;;;;;;;;3.00;99.80;;;;;;5028510;28;19983;-88
2022/01/11 11:27:17;;;;;;;;;;;3.10;99.90;;;;;;5012946;28;19921;-87
2022/01/11 11:29:43;;;;;;;;;;;3.10;99.90;;;;;;5028757;28;19925;-86
2022/01/11 11:32:09;;;;;;;;;;;3.00;99.90;;;;;;5022568;28;19971;-91
2022/01/11 11:34:35;;;;;;;;;;;3.10;99.90;;;;;;5043761;28;19913;-87
2022/01/11 11:37:04;;;;;;;;;;;3.30;99.90;;;;;;5026848;28;20209;-87
2022/01/11 11:39:30;;;;;;;;;;;3.30;99.90;;;;;;5028420;28;19919;-87
2022/01/11 11:41:57;;;;;;;;;;;3.20;99.20;;;;;;5030166;28;19913;-87
2022/01/11 11:44:26;;;;;;;;;;;3.10;98.40;;;;;;5018567;28;19917;-89
2022/01/11 11:46:52;;;;;;;;;;;3.20;97.40;;;;;;5029285;28;19992;-89
2022/01/11 11:49:37;;;;;;;;;;;3.30;98.20;;;;;;5028130;28;20020;-85
2022/01/11 11:52:16;;;;;;;;;;;3.40;99.20;;;;;;5027179;28;19999;-88
2022/01/11 11:54:49;;;;;;;;;;;3.60;98.50;;;;;;5028651;28;20028;-90
2022/01/11 11:57:15;;;;;;;;;;;3.50;99.10;;;;;;5031709;28;19917;-88
2022/01/11 11:59:42;;;;;;;;;;;3.50;99.10;;;;;;5028215;28;20292;-88
2022/01/11 12:02:09;;;;;;;;;;;3.80;97.90;;;;;;5030266;28;19928;-89
2022/01/11 12:04:34;;;;;;;;;;;4.00;95.60;;;;;;5026805;28;20256;-87
2022/01/11 12:07:20;;;;;;;;;;;3.90;96.60;;;;;;5027429;28;19914;-86
2022/01/11 12:09:50;;;;;;;;;;;3.70;96.30;;;;;;5022048;28;19923;-88
2022/01/11 12:12:35;;;;;;;;;;;3.80;96.70;;;;;;5044425;28;20008;-86
2022/01/11 12:15:21;;;;;;;;;;;3.50;97.40;;;;;;5027312;28;20052;-87
2022/01/11 12:17:46;;;;;;;;;;;3.50;99.10;;;;;;5026705;28;19944;-89
2022/01/11 12:20:32;;;;;;;;;;;3.80;97.20;;;;;;5030598;28;19917;-89
2022/01/11 12:22:57;;;;;;;;;;;3.80;96.40;;;;;;5031790;28;20004;-87
2022/01/11 12:25:30;;;;;;;;;;;3.50;96.20;;;;;;5030066;28;19999;-88
2022/01/11 12:28:00;;;;;;;;;;;3.50;96.30;;;;;;5015131;28;19920;-87
2022/01/11 12:30:26;;;;;;;;;;;3.40;96.20;;;;;;5028886;28;20816;-86
2022/01/11 12:33:10;;;;;;;;;;;3.20;96.90;;;;;;5031781;28;19920;-86
2022/01/11 12:35:51;;;;;;;;;;;3.40;96.10;;;;;;5043827;28;20314;-88
2022/01/11 12:38:17;;;;;;;;;;;3.40;96.30;;;;;;5030398;28;19963;-87
2022/01/11 12:40:44;;;;;;;;;;;3.50;96.80;;;;;;5029844;28;20319;-85
2022/01/11 12:43:17;;;;;;;;;;;3.50;97.10;;;;;;5027337;28;19913;-87
2022/01/11 12:45:55;;;;;;;;;;;3.50;97.00;;;;;;5041745;28;19917;-88
2022/01/11 12:48:57;;;;;;;;;;;3.50;98.00;;;;;;5048840;28;19913;-85
2022/01/11 12:51:39;;;;;;;;;;;3.50;97.40;;;;;;4981190;28;19980;-89
2022/01/11 12:54:15;;;;;;;;;;;3.40;96.60;;;;;;5010698;28;19992;-87
2022/01/11 12:56:42;;;;;;;;;;;3.20;97.80;;;;;;5019506;28;19921;-91
2022/01/11 12:59:07;;;;;;;;;;;3.20;98.00;;;;;;5031864;28;19963;-87
2022/01/11 13:01:33;;;;;;;;;;;3.30;98.60;;;;;;5015710;28;19914;-87
2022/01/11 13:04:00;;;;;;;;;;;3.30;97.40;;;;;;5030791;28;20299;-89
2022/01/11 13:06:30;;;;;;;;;;;3.20;96.10;;;;;;5029677;28;20153;-88
2022/01/11 13:08:57;;;;;;;;;;;3.20;97.20;;;;;;5029963;28;19913;-89
2022/01/11 13:11:22;;;;;;;;;;;3.20;97.90;;;;;;5031818;28;19917;-88
2022/01/11 13:13:54;;;;;;;;;;;3.00;96.80;;;;;;5031296;28;19917;-89
2022/01/11 13:16:23;;;;;;;;;;;3.00;96.40;;;;;;5032368;28;19920;-88
2022/01/11 13:18:49;;;;;;;;;;;2.90;97.40;;;;;;5015764;28;19920;-87
2022/01/11 13:21:20;;;;;;;;;;;3.10;97.70;;;;;;5031715;28;19913;-89
2022/01/11 13:24:25;;;;;;;;;;;3.30;97.40;;;;;;5048398;28;19924;-86
2022/01/11 13:26:38;;;;;;;;;;;3.30;95.60;;;;;;5031026;28;20005;-90
2022/01/11 13:29:05;;;;;;;;;;;3.20;92.80;;;;;;5031752;28;20395;-87
2022/01/11 13:31:37;;;;;;;;;;;3.30;94.00;;;;;;5014973;28;20043;-87
2022/01/11 13:34:03;;;;;;;;;;;3.10;92.70;;;;;;5032912;28;19913;-91
2022/01/11 13:36:30;;;;;;;;;;;2.90;92.80;;;;;;5031967;28;19928;-88
2022/01/11 13:38:59;;;;;;;;;;;2.90;93.30;;;;;;5018643;28;19918;-89
2022/01/11 13:41:36;;;;;;;;;;;2.90;94.20;;;;;;5036102;28;19917;-88
2022/01/11 13:44:12;;;;;;;;;;;2.90;94.10;;;;;;5032169;28;20380;-88
2022/01/11 13:46:39;;;;;;;;;;;3.00;93.60;;;;;;5016961;28;19917;-89
2022/01/11 13:49:07;;;;;;;;;;;3.10;93.80;;;;;;5034438;28;19910;-89
2022/01/11 13:51:33;;;;;;;;;;;3.20;93.60;;;;;;5033607;28;20292;-89
2022/01/11 13:53:59;;;;;;;;;;;3.20;94.10;;;;;;5031975;28;19913;-88
2022/01/11 13:56:28;;;;;;;;;;;3.10;92.70;;;;;;5014561;28;19917;-90
2022/01/11 13:58:54;;;;;;;;;;;3.10;94.90;;;;;;5030868;28;19963;-89
2022/01/11 14:01:21;;;;;;;;;;;3.10;93.00;;;;;;5031503;28;19949;-86
2022/01/11 14:03:49;;;;;;;;;;;3.10;92.70;;;;;;5031288;28;19924;-88
2022/01/11 14:06:19;;;;;;;;;;;3.00;91.40;;;;;;5014339;28;20347;-87
2022/01/11 14:08:48;;;;;;;;;;;3.00;90.50;;;;;;5029082;28;20377;-87
2022/01/11 14:11:23;;;;;;;;;;;3.10;90.00;;;;;;5025063;28;19928;-87
2022/01/11 14:13:49;;;;;;;;;;;2.90;90.40;;;;;;5028520;28;20012;-89
2022/01/11 14:16:15;;;;;;;;;;;2.90;91.70;;;;;;5043809;28;19924;-86
2022/01/11 14:19:00;;;;;;;;;;;2.90;90.60;;;;;;5041364;28;19913;-88
2022/01/11 14:21:25;;;;;;;;;;;2.80;90.30;;;;;;5033026;28;19925;-88
2022/01/11 14:23:52;;;;;;;;;;;2.80;90.60;;;;;;4999456;28;19925;-87
2022/01/11 14:26:17;;;;;;;;;;;2.70;90.50;;;;;;5027215;28;19913;-89
2022/01/11 14:28:43;;;;;;;;;;;2.80;91.50;;;;;;5028537;28;20290;-90
2022/01/11 14:31:16;;;;;;;;;;;2.80;92.20;;;;;;5012808;28;20294;-87
2022/01/11 14:33:42;;;;;;;;;;;2.70;91.30;;;;;;5014198;28;19921;-87
2022/01/11 14:36:11;;;;;;;;;;;2.60;91.30;;;;;;5030219;28;19956;-86
2022/01/11 14:38:37;;;;;;;;;;;2.60;90.40;;;;;;5029964;28;19917;-87